Time;durP1;ratioP1;P1;durP2;ratioP2;P2;SDS_P1;SDS_P2;PMS_P1;PMS_P2;Temp;Humidity;BMP_temperature;BMP_pressure;BME280_temperature;BME280_humidity;BME280_pressure;Samples;Min_cycle;Max_cycle;Signal;HPM_P1;HPM_P2
2023/06/28 19:56:49;;;;;;;4.10;1.60;;;;;;;24.27;44.84;99908.20;106546;1256;75004;-81
2023/06/28 19:59:38;;;;;;;2.30;1.50;;;;;;;24.17;45.12;99910.89;106637;1254;69686;-80
2023/06/28 20:02:26;;;;;;;5.10;1.50;;;;;;;24.20;45.29;99912.92;106645;1254;72654;-80
2023/06/28 20:05:19;;;;;;;1.90;1.30;;;;;;;24.23;45.34;99915.90;106407;1253;61273;-83
2023/06/28 20:08:07;;;;;;;4.40;1.70;;;;;;;24.30;45.30;99918.67;106531;1254;61231;-83
2023/06/28 20:10:56;;;;;;;3.10;1.60;;;;;;;24.63;44.32;99923.11;106658;1254;74728;-81
2023/06/28 20:13:45;;;;;;;4.30;1.70;;;;;;;24.52;44.53;99919.82;109113;1254;68501;-81
2023/06/28 20:16:34;;;;;;;2.30;1.70;;;;;;;24.54;44.50;99916.09;106684;1254;71290;-84
2023/06/28 20:19:22;;;;;;;5.70;1.50;;;;;;;24.70;44.24;99921.34;107005;1254;61275;-80
2023/06/28 20:22:10;;;;;;;2.90;1.70;;;;;;;24.69;44.01;99922.37;106386;1252;61356;-80
2023/06/28 20:24:59;;;;;;;4.70;1.80;;;;;;;24.32;45.34;99925.39;106307;1259;74769;-83
2023/06/28 20:27:47;;;;;;;3.80;2.10;;;;;;;24.10;46.52;99920.96;106582;1256;67813;-80
2023/06/28 20:30:35;;;;;;;4.60;1.90;;;;;;;23.89;47.68;99921.30;106387;1253;73102;-80
2023/06/28 20:33:25;;;;;;;7.20;1.70;;;;;;;23.87;48.45;99921.91;106494;1254;61291;-83
2023/06/28 20:36:13;;;;;;;6.30;1.70;;;;;;;23.93;48.50;99915.69;106348;1253;61302;-83
2023/06/28 20:39:04;;;;;;;3.30;1.50;;;;;;;24.03;48.32;99917.95;106102;1256;74554;-80
2023/06/28 20:41:53;;;;;;;3.30;1.80;;;;;;;24.09;48.52;99919.59;106275;1259;69009;-82
2023/06/28 20:44:43;;;;;;;3.80;1.70;;;;;;;24.01;49.23;99916.73;106382;1254;73441;-80
2023/06/28 20:47:31;;;;;;;4.30;1.70;;;;;;;24.19;48.64;99920.40;106385;1254;61263;-83
2023/06/28 20:50:20;;;;;;;3.50;1.70;;;;;;;24.25;48.65;99924.05;106421;1254;61144;-80
2023/06/28 20:53:11;;;;;;;2.70;1.50;;;;;;;24.31;48.55;99919.48;106287;1257;75129;-80
2023/06/28 20:55:59;;;;;;;2.60;1.50;;;;;;;24.18;49.08;99918.16;106357;1256;68793;-83
2023/06/28 20:58:48;;;;;;;3.00;1.60;;;;;;;24.12;49.54;99916.75;106407;1254;71593;-80
2023/06/28 21:01:36;;;;;;;4.20;1.60;;;;;;;23.91;50.35;99923.25;106279;1257;61359;-83
2023/06/28 21:04:23;;;;;;;3.60;1.50;;;;;;;23.90;50.59;99922.83;106287;1253;61131;-83
2023/06/28 21:07:12;;;;;;;4.30;1.70;;;;;;;23.76;51.53;99920.60;106150;1256;74669;-83
2023/06/28 21:10:00;;;;;;;1.50;1.40;;;;;;;23.85;51.12;99917.77;106465;1256;67251;-82
2023/06/28 21:12:48;;;;;;;2.80;1.50;;;;;;;23.78;51.68;99914.17;106739;1254;71506;-80
2023/06/28 21:15:38;;;;;;;4.20;1.30;;;;;;;23.73;52.26;99916.02;106576;1254;61171;-84
2023/06/28 21:18:30;;;;;;;2.30;1.80;;;;;;;23.75;52.47;99909.69;106333;1257;61314;-82
2023/06/28 21:21:18;;;;;;;4.30;1.70;;;;;;;23.90;52.07;99910.87;106373;1254;72741;-80
2023/06/28 21:24:06;;;;;;;4.40;1.80;;;;;;;23.81;52.38;99917.88;106334;1257;67241;-83
2023/06/28 21:26:54;;;;;;;3.90;1.60;;;;;;;23.76;53.12;99916.45;106316;1254;71324;-83
2023/06/28 21:29:42;;;;;;;2.10;1.60;;;;;;;23.63;53.90;99911.90;106203;1255;62384;-83
2023/06/28 21:32:30;;;;;;;2.70;1.50;;;;;;;23.64;53.90;99911.13;106205;1257;61090;-83
2023/06/28 21:35:20;;;;;;;5.60;2.10;;;;;;;23.54;54.89;99914.83;106285;1254;74607;-83
2023/06/28 21:38:08;;;;;;;3.10;1.60;;;;;;;23.46;55.51;99916.66;106352;1254;67639;-83
2023/06/28 21:40:57;;;;;;;3.70;1.40;;;;;;;23.49;55.58;99914.54;106392;1256;71444;-83
2023/06/28 21:43:45;;;;;;;4.10;1.30;;;;;;;23.50;55.70;99916.70;106355;1254;61339;-80
2023/06/28 21:46:33;;;;;;;1.80;1.60;;;;;;;23.63;55.02;99916.05;106471;1256;61107;-83
2023/06/28 21:49:21;;;;;;;4.40;1.70;;;;;;;23.59;55.02;99911.46;106448;1256;73448;-83
2023/06/28 21:52:09;;;;;;;4.30;1.80;;;;;;;23.42;56.10;99914.05;106397;1257;68536;-83
2023/06/28 21:54:57;;;;;;;4.00;1.50;;;;;;;23.44;55.90;99910.80;106524;1255;70993;-80
2023/06/28 21:57:45;;;;;;;2.60;1.40;;;;;;;23.30;56.73;99910.96;106338;1253;61373;-80
2023/06/28 22:00:33;;;;;;;2.30;1.40;;;;;;;23.23;57.27;99907.75;106426;1254;61237;-80
2023/06/28 22:03:23;;;;;;;3.50;1.40;;;;;;;23.25;57.15;99907.46;106243;1253;75070;-79
2023/06/28 22:06:11;;;;;;;3.30;1.30;;;;;;;23.29;57.05;99910.93;106587;1255;67906;-80
2023/06/28 22:08:59;;;;;;;2.80;1.50;;;;;;;23.28;56.99;99913.07;106451;1256;72421;-80
2023/06/28 22:11:52;;;;;;;3.40;1.40;;;;;;;23.18;57.70;99910.55;106365;1256;61234;-79
2023/06/28 22:14:45;;;;;;;3.80;2.00;;;;;;;23.04;58.44;99912.20;106549;1254;61243;-82
2023/06/28 22:17:34;;;;;;;3.40;1.40;;;;;;;23.01;58.89;99911.52;106141;1254;73875;-82
2023/06/28 22:20:22;;;;;;;3.00;1.30;;;;;;;23.04;58.75;99911.73;106190;1256;67494;-82
2023/06/28 22:23:10;;;;;;;3.70;1.80;;;;;;;23.06;58.59;99908.40;106424;1256;72826;-80
2023/06/28 22:25:59;;;;;;;4.10;1.50;;;;;;;23.05;58.67;99905.52;106332;1254;61273;-83
2023/06/28 22:28:47;;;;;;;6.90;1.80;;;;;;;22.69;60.91;99908.87;106656;1255;61270;-80
2023/06/28 22:31:35;;;;;;;3.50;1.40;;;;;;;22.58;61.95;99909.19;106409;1256;74763;-80
2023/06/28 22:34:23;;;;;;;3.60;1.60;;;;;;;22.85;60.75;99907.93;106572;1255;67388;-80
2023/06/28 22:37:11;;;;;;;1.70;1.40;;;;;;;22.89;60.32;99907.99;106611;1254;72708;-80
2023/06/28 22:39:59;;;;;;;1.90;1.10;;;;;;;22.44;63.17;99906.88;106473;1255;61272;-83
2023/06/28 22:42:47;;;;;;;4.90;2.00;;;;;;;22.48;63.37;99906.72;106440;1256;61153;-83
2023/06/28 22:45:36;;;;;;;3.00;1.70;;;;;;;22.55;62.65;99900.30;106425;1252;73517;-80
2023/06/28 22:48:26;;;;;;;2.40;1.30;;;;;;;22.50;63.29;99897.05;106306;1256;68674;-83
2023/06/28 22:51:16;;;;;;;4.20;1.70;;;;;;;22.54;63.21;99894.88;106538;1256;75856;-80
2023/06/28 22:54:06;;;;;;;4.30;1.80;;;;;;;22.67;62.43;99896.27;106332;1257;61237;-78
2023/06/28 22:56:54;;;;;;;4.90;1.20;;;;;;;22.63;62.37;99895.19;106248;1257;61353;-81
2023/06/28 22:59:42;;;;;;;2.30;1.40;;;;;;;22.64;62.32;99898.29;106513;1256;72693;-82
2023/06/28 23:02:30;;;;;;;8.40;2.10;;;;;;;22.52;63.18;99899.55;106246;1256;68580;-81
2023/06/28 23:05:19;;;;;;;4.00;1.40;;;;;;;22.56;63.22;99897.85;106375;1257;72546;-81
2023/06/28 23:08:07;;;;;;;2.50;1.50;;;;;;;22.45;64.18;99898.25;106248;1259;61250;-79
2023/06/28 23:10:56;;;;;;;2.30;1.20;;;;;;;22.35;65.48;99901.18;106489;1257;61260;-82
2023/06/28 23:13:44;;;;;;;2.40;1.60;;;;;;;22.28;66.26;99897.23;106613;1254;75637;-79
2023/06/28 23:16:38;;;;;;;3.40;1.50;;;;;;;22.24;67.22;99896.32;106370;1255;67333;-82
2023/06/28 23:19:26;;;;;;;2.40;1.40;;;;;;;22.23;67.60;99893.03;106328;1255;71196;-82
2023/06/28 23:22:15;;;;;;;3.00;1.50;;;;;;;22.34;67.15;99892.19;106455;1254;61231;-83
2023/06/28 23:25:04;;;;;;;2.30;1.30;;;;;;;22.43;66.92;99893.84;106280;1253;61231;-79
2023/06/28 23:27:53;;;;;;;3.60;1.30;;;;;;;22.49;66.49;99892.89;106376;1254;74641;-83
2023/06/28 23:30:41;;;;;;;2.00;1.30;;;;;;;22.66;65.63;99891.08;106304;1255;69559;-82
2023/06/28 23:33:30;;;;;;;3.40;1.40;;;;;;;22.75;64.92;99887.02;106189;1257;73857;-82
2023/06/28 23:36:18;;;;;;;2.70;1.40;;;;;;;22.84;64.04;99885.62;106378;1257;61865;-83
2023/06/28 23:39:06;;;;;;;2.60;1.70;;;;;;;22.70;65.47;99888.05;106334;1257;61246;-82
2023/06/28 23:41:55;;;;;;;1.60;1.20;;;;;;;22.76;65.24;99885.73;106403;1257;74828;-82
2023/06/28 23:44:47;;;;;;;3.60;1.70;;;;;;;22.75;65.07;99885.73;106277;1257;68320;-82
2023/06/28 23:47:36;;;;;;;2.10;1.70;;;;;;;22.86;64.79;99875.95;106344;1257;72636;-82
2023/06/28 23:50:26;;;;;;;3.60;1.60;;;;;;;22.78;64.92;99872.97;106540;1254;62006;-82
2023/06/28 23:53:16;;;;;;;2.70;1.40;;;;;;;22.61;66.49;99874.70;106632;1254;61291;-82
2023/06/28 23:56:11;;;;;;;3.40;1.40;;;;;;;22.72;66.31;99877.73;106578;1257;74257;-82
2023/06/28 23:58:59;;;;;;;3.80;1.80;;;;;;;22.62;66.95;99875.99;106364;1254;68592;-79
